• Join FlightAware (Why Join?)
  • Login
  • US Flag 
07:53PM EDT


 

Airport Tracker/Info


-or-


 

Live Flight TrackerFlight Track Log ✈ VH-OWQ ✈ 24-Sep-2013 ✈ YOLW - YPPD / PHE

Flight Track Log - Related Links

Times and Time Zones

All times are in EDT time to prevent confusion due to time zone crossing. See the VH-OWQ flight status page for this flight to view local times or setup timezone preferences in your user account.

Time Position Orientation Groundspeed Altitude Reporting Facility
EDT Latitude Longitude Course Direction KTS MPH feet Rate Location/Type
07:16AM -21.6096 115.2789 70° East 200  Level Aus ATC (Calculated)
07:16AM -21.6096 115.2789 70° East 200 2,040 Level Aus ATC (Calculated)
07:17AM -21.5724 115.3835 70° East 2,160 Descending Aus ATC (Calculated)
07:17AM -21.5724 115.3835 70° East 2,640 Level Aus ATC (Calculated)
07:18AM -21.5734 115.3807 69° East  Level Estimated
07:19AM -21.5442 115.4626 69° East  Level Estimated
07:20AM -21.5173 115.5380 69° East  Level Estimated
07:20AM -21.5178 115.5367 78° East  Level Aus ATC (Calculated)
07:21AM -21.4830 115.6339 246° West 3,900 Level Aus ATC (Calculated)
07:22AM -21.4653 115.6835 69° East  Level Estimated
07:23AM -21.4502 115.7255 69° East  Level Estimated
07:24AM -21.4232 115.8007 69° East  Level Estimated
07:24AM -21.5124 115.5629 69° East 178 205 17,000  Level Aus ATC (RADAR)
07:25AM -21.5008 115.5964 70° East 178 205 17,600 780 Climbing Aus ATC (RADAR)
07:25AM -21.4894 115.6273 68° East 183 211 18,000 780 Climbing Aus ATC (RADAR)
07:26AM -21.4750 115.6652 68° East 196 226 18,600 780 Climbing Aus ATC (RADAR)
07:26AM -21.4677 115.6870 70° East 190 219 18,900 900 Climbing Aus ATC (RADAR)
07:27AM -21.4561 115.7197 69° East 194 223 19,500 780 Climbing Aus ATC (RADAR)
07:28AM -21.4425 115.7602 70° East 191 220 20,000 600 Climbing Aus ATC (RADAR)
07:28AM -21.4346 115.7836 70° East 194 223 20,200 660 Climbing Aus ATC (RADAR)
07:29AM -21.4211 115.8195 68° East 207 238 20,700 600 Climbing Aus ATC (RADAR)
07:29AM -21.4039 115.8649 68° East 215 247 21,000 180 Climbing Aus ATC (RADAR)
07:30AM -21.3913 115.9022 70° East 221 254 21,000  Level Aus ATC (RADAR)
07:30AM -21.3787 115.9374 69° East 235 270 21,000  Level Aus ATC (RADAR)
07:31AM -21.3633 115.9797 69° East 251 289 21,000  Level Aus ATC (RADAR)
07:32AM -21.3456 116.0258 68° East 271 312 21,000  Level Aus ATC (RADAR)
07:32AM -21.3248 116.0833 69° East 274 315 21,000  Level Aus ATC (RADAR)
07:33AM -21.3120 116.1199 69° East 267 307 21,000  Level Aus ATC (RADAR)
07:33AM -21.2967 116.1632 69° East 265 305 21,000  Level Aus ATC (RADAR)
07:34AM -21.2805 116.2080 69° East 269 310 21,000  Level Aus ATC (RADAR)
07:35AM -21.2634 116.2537 68° East 276 318 21,000  Level Aus ATC (RADAR)
07:35AM -21.2478 116.2975 69° East 272 313 21,000  Level Aus ATC (RADAR)
07:36AM -21.2264 116.3558 69° East 277 319 21,000  Level Aus ATC (RADAR)
07:36AM -21.2149 116.3877 69° East 276 318 21,000  Level Aus ATC (RADAR)
07:37AM -21.1983 116.4334 69° East 278 320 21,000  Level Aus ATC (RADAR)
07:38AM -21.1630 116.5298 69° East 276 318 21,000  Level Aus ATC (RADAR)
07:39AM -21.1512 116.5623 69° East 277 319 21,000  Level Aus ATC (RADAR)
07:39AM -21.1374 116.6001 69° East 274 315 21,000  Level Aus ATC (RADAR)
07:40AM -21.1183 116.6522 69° East 277 319 21,000  Level Aus ATC (RADAR)
07:40AM -21.1014 116.6984 69° East 281 323 21,000  Level Aus ATC (RADAR)
07:41AM -21.0849 116.7436 69° East 279 321 21,000  Level Aus ATC (RADAR)
07:41AM -21.0707 116.7820 68° East 278 320 21,000  Level Aus ATC (RADAR)
07:42AM -21.0543 116.8270 69° East 276 318 21,000  Level Aus ATC (RADAR)
07:43AM -21.0281 116.8984 69° East 277 319 21,000  Level Aus ATC (RADAR)
07:43AM -21.0185 116.9244 69° East 278 320 21,000  Level Aus ATC (RADAR)
07:44AM -21.0016 116.9703 68° East 280 322 21,000  Level Aus ATC (RADAR)
07:44AM -20.9825 117.0224 68° East 281 323 21,000  Level Aus ATC (RADAR)
07:45AM -20.9707 117.0541 68° East 277 319 21,000  Level Aus ATC (RADAR)
07:45AM -20.9537 117.1005 69° East 282 325 21,000  Level Aus ATC (RADAR)
07:46AM -20.9343 117.1529 68° East 282 325 21,000  Level Aus ATC (RADAR)
07:46AM -20.9223 117.1848 68° East 281 323 21,000  Level Aus ATC (RADAR)
07:47AM -20.9127 117.2095 67° East 278 320 21,000  Level Aus ATC (RADAR)
07:48AM -20.8668 117.3342 69° East 257 296 21,000  Level Aus ATC (RADAR)
07:49AM -20.8498 117.3802 68° East 272 313 21,000  Level Aus ATC (RADAR)
07:50AM -20.8306 117.4303 68° East 272 313 21,000  Level Aus ATC (RADAR)
07:50AM -20.8182 117.4654 69° East 284 327 21,000  Level Aus ATC (RADAR)
07:50AM -20.8134 117.4780 68° East 284 327 21,000  Level Aus ATC (RADAR)
07:51AM -20.7954 117.5258 68° East 363 418 21,000  Level Aus ATC (RADAR)
07:54AM -20.6918 117.8007 68° East 200 -6,780 Descending Aus ATC (Calculated)
07:56AM -20.6469 117.9197 68° East  Level Estimated
07:57AM -20.6187 117.9940 68° East  Level Estimated
07:58AM -20.5906 118.0684 68° East  Level Estimated
07:59AM -20.5624 118.1427 68° East  Level Estimated
08:00AM -20.5341 118.2169 68° East  Level Estimated
08:00AM -20.4768 118.3663 248° West 200  Level Aus ATC (Calculated)
08:01AM -20.5059 118.2912 68° East  Level Estimated
08:02AM -20.4477 118.4430 68° East  Level Estimated
08:03AM -20.4194 118.5172 68° East  Level Estimated
08:04AM -20.3911 118.5914 68° East  Level Estimated
08:04AM -20.3778 118.6265 305° West  Level Aus ATC (Calculated)
08:05AM -20.3778 118.6264 68° East  Level Estimated
08:06AM -20.3778 118.6264 307° West  Level Estimated
08:07AM -20.3778 118.6264 335° Northwest  Level Estimated
08:08AM -20.3778 118.6264 335° Northwest  Level Estimated
08:09AM -20.3778 118.6264 335° Northwest  Level Estimated
08:10AM -20.3778 118.6264 335° Northwest  Level Estimated
08:11AM -20.3778 118.6264 335° Northwest  Level Estimated